Flight Track Log - Related Links

Times and Time Zones

All times are in EDT time to prevent confusion due to time zone crossing. See the RPA3875 flight status page for this flight to view local times or setup timezone preferences in your user account.

Time Position Orientation Groundspeed Altitude Reporting Facility
EDT Latitude Longitude Course Direction KTS MPH feet Rate Location/Type
Sat 06:09:53 AM 38.9833 -77.5333 307° West 207 238 4,100  Level Potomac TRACON
Sat 06:10:53 AM 39.0500 -77.5333 360° North 229 264 7,300 3,316 Climbing Potomac TRACON
Sat 06:11:00 AM 39.0995 -77.7144 308° West  Level Estimated
Sat 06:11:47 AM 39.0833 -77.5500 339° North 181 208 10,400  Level Potomac TRACON
Sat 06:12:00 AM 39.1501 -77.7994 307° West  Level Estimated
Sat 06:12:35 AM 39.1167 -77.5833 322° Northwest 184 212 12,500  Level Potomac TRACON
Sat 06:13:00 AM 39.2006 -77.8846 307° West  Level Estimated
Sat 06:14:00 AM 39.2510 -77.9699 307° West  Level Estimated
Sat 06:14:10 AM 39.1886 -77.6294 334° Northwest 191 220 15,900  Level Cleveland Center
Sat 06:15:00 AM 39.3014 -78.0553 307° West  Level Estimated
Sat 06:15:09 AM 39.2375 -77.6644 331° Northwest 199 229 18,300  Level Washington Center
Sat 06:16:10 AM 39.2781 -77.7011 325° Northwest 181 208 20,500 1,918 Climbing Washington Center
Sat 06:17:11 AM 39.3092 -77.7486 310° West 175 201 22,200 1,230 Climbing Washington Center
Sat 06:18:12 AM 39.3436 -77.7969 313° West 180 207 23,000 397 Climbing Washington Center
Sat 06:19:12 AM 39.3978 -77.8706 314° West 226 260 23,000  Level Washington Center
Sat 06:20:12 AM 39.4500 -77.9428 313° West 265 305 23,000  Level Washington Center
Sat 06:21:13 AM 39.5047 -78.0178 313° West 282 325 23,000  Level Washington Center
Sat 06:22:16 AM 39.5589 -78.0944 313° West 286 329 23,000  Level Washington Center
Sat 06:23:17 AM 39.6139 -78.1703 313° West 286 329 23,000  Level Washington Center
Sat 06:24:17 AM 39.6681 -78.2458 313° West 287 330 23,000  Level Cleveland Center
Sat 06:25:17 AM 39.7206 -78.3219 312° West 286 329 23,000  Level Cleveland Center
Sat 06:26:18 AM 39.7783 -78.4050 312° West 282 325 23,000  Level Cleveland Center
Sat 06:27:19 AM 39.8306 -78.4781 313° West 281 323 23,000  Level Cleveland Center
Sat 06:28:20 AM 39.8833 -78.5494 314° West 278 320 23,000  Level Cleveland Center
Sat 06:29:20 AM 39.9347 -78.6239 312° West 275 316 23,000  Level Cleveland Center
Sat 06:30:21 AM 39.9856 -78.6972 312° West 276 318 23,000  Level Cleveland Center
Sat 06:31:22 AM 40.0369 -78.7703 313° West 275 316 23,000  Level Cleveland Center
Sat 06:32:23 AM 40.0875 -78.8428 312° West 274 315 23,000  Level Cleveland Center
Sat 06:33:24 AM 40.1392 -78.9158 313° West 274 315 23,000  Level Cleveland Center
Sat 06:34:25 AM 40.1894 -78.9886 312° West 272 313 23,000  Level Cleveland Center
Sat 06:35:26 AM 40.2400 -79.0617 312° West 272 313 23,000  Level Cleveland Center
Sat 06:36:26 AM 40.2906 -79.1328 313° West 268 308 23,000  Level Cleveland Center
Sat 06:37:27 AM 40.3397 -79.2053 312° West 268 308 23,000  Level Cleveland Center
Sat 06:38:28 AM 40.4003 -79.2922 312° West 269 310 23,000  Level Cleveland Center
Sat 06:39:29 AM 40.4444 -79.3578 312° West 269 310 23,000  Level Cleveland Center
Sat 06:40:30 AM 40.4944 -79.4292 313° West 269 310 23,000  Level Cleveland Center
Sat 06:41:31 AM 40.5442 -79.5028 312° West 269 310 23,000  Level Cleveland Center
Sat 06:42:32 AM 40.5936 -79.5750 312° West 269 310 23,000  Level Cleveland Center
Sat 06:43:33 AM 40.6436 -79.6472 312° West 269 310 23,000 -443 Level Cleveland Center
Sat 06:44:34 AM 40.7036 -79.7350 312° West 269 310 22,100 -787 Descending Cleveland Center
Sat 06:45:35 AM 40.7522 -79.8072 312° West 268 308 21,400 -738 Descending Cleveland Center
Sat 06:46:36 AM 40.8006 -79.8786 312° West 266 306 20,600 -885 Descending Cleveland Center
Sat 06:47:37 AM 40.8492 -79.9511 312° West 266 306 19,600 -984 Descending Cleveland Center
Sat 06:48:38 AM 40.8992 -80.0250 312° West 267 307 18,600 -984 Descending Cleveland Center
Sat 06:49:39 AM 40.9506 -80.1022 311° West 280 322 17,600 -984 Descending Cleveland Center
Sat 06:50:40 AM 41.0039 -80.1811 312° West 287 330 16,600 -787 Descending Cleveland Center
Sat 06:51:41 AM 41.0564 -80.2597 312° West 287 330 16,000 -295 Descending Cleveland Center
Sat 06:52:42 AM 41.1067 -80.3347 312° West 277 319 16,000  Level Cleveland Center
Sat 06:53:43 AM 41.1608 -80.4161 311° West 269 310 16,000  Level Cleveland Center
Sat 06:54:44 AM 41.2075 -80.4869 311° West 255 293 16,000  Level Cleveland Center
Sat 06:55:45 AM 41.2483 -80.5506 311° West 232 267 16,000 -246 Level Cleveland Center
Sat 06:56:46 AM 41.2911 -80.6125 313° West 226 260 15,500 -585 Descending Cleveland Center
Sat 06:57:48 AM 41.3325 -80.6769 311° West 226 260 14,800 -780 Descending Cleveland Center
Sat 06:58:49 AM 41.3611 -80.7481 298° West 218 251 13,900 -1,009 Descending Cleveland Center
Sat 06:59:41 AM 41.3853 -80.8183 295° West 213 245 12,900 -984 Descending Cleveland Center
Sat 06:59:50 AM 41.3867 -80.8194 329° Northwest 216 249 12,900 -1,000 Level Cleveland Center
Sat 07:00:35 AM 41.4094 -80.8831 296° West 214 246 12,000 -1,180 Descending Cleveland Center
Sat 07:00:51 AM 41.4178 -80.9036 298° West 215 247 11,700 -1,075 Descending Cleveland Center
Sat 07:01:42 AM 41.4419 -80.9686 296° West 225 259 10,800 -984 Descending Cleveland Center
Sat 07:01:52 AM 41.4469 -80.9778 306° West 222 255 10,700 -1,000 Descending Cleveland Center
Sat 07:02:42 AM 41.4694 -81.0397 296° West 215 247 9,800 -968 Descending Cleveland Center
Sat 07:02:54 AM 41.4736 -81.0472 307° West 212 244 9,700 -716 Descending Cleveland Center
Sat 07:03:49 AM 41.4858 -81.1175 283° West 214 246 9,000 -689 Descending Cleveland Center
Sat 07:03:55 AM 41.4867 -81.1250 278° West 217 250 9,000 -689 Level Cleveland Center
Sat 07:04:50 AM 41.4914 -81.1994 275° West 224 258 8,300 -689 Descending Cleveland Center
Sat 07:04:56 AM 41.4917 -81.2061 273° West 220 253 8,300 -896 Level Cleveland Center
Sat 07:05:57 AM 41.4972 -81.2861 275° West 220 253 7,300 -1,041 Descending Cleveland Center
Sat 07:06:57 AM 41.5019 -81.3683 274° West 210 242 6,200 -1,065 Descending Cleveland Center
Sat 07:06:59 AM 41.5028 -81.3647 73° East 216 249 6,200 -885 Level Cleveland Center
Sat 07:07:58 AM 41.5247 -81.4417 291° West 224 258 5,300 -885 Descending Cleveland Center
Sat 07:08:00 AM 41.5242 -81.4389 105° East 226 260 5,300 -286 Level Cleveland Center
Sat 07:09:01 AM 41.5539 -81.5106 299° West 225 259 5,000 -281 Descending Cleveland Center
Sat 07:09:04 AM 41.5533 -81.5217 266° West 221 254 5,000  Level Cleveland Center
Sat 07:09:59 AM 41.5661 -81.5908 284° West 209 241 5,000  Level Cleveland Center
Sat 07:10:02 AM 41.5664 -81.5886 81° East 222 255 5,000 -738 Level Cleveland Center
Sat 07:11:04 AM 41.5494 -81.6456 248° West 184 212 4,200 -661 Descending Cleveland Center
Sat 07:12:00 AM 41.5103 -81.6964 224° Southwest 192 221 3,700 -492 Descending Cleveland Center
Sat 07:12:05 AM 41.5103 -81.6936 90° East 187 215 3,700 -977 Level Cleveland Center
Sat 07:12:43 AM 41.4856 -81.7372 233° Southwest 180 207 3,000 -1,082 Descending Cleveland Center
Sat 07:13:06 AM 41.4758 -81.7544 233° Southwest 182 209 2,600 -689 Descending Cleveland Center
Sat 07:13:44 AM 41.4611 -81.7750 226° Southwest 125 144 2,300 -581 Descending Cleveland Center
Sat 07:14:08 AM 41.4567 -81.7844 238° Southwest 125 144 2,000 -500 Descending Cleveland Center
Sat 07:14:44 AM 41.4461 -81.8006 229° Southwest 81 93 1,800 -492 Descending Cleveland Center
Sat 07:15:09 AM 41.4389 -81.8114 228° Southwest 103 119 1,500 -565 Descending Cleveland Center
Sat 07:16:09 AM 41.4214 -81.8411 232° Southwest 101 116 1,000 -492 Descending Cleveland Center
Sat 07:16:10 AM 41.4217 -81.8403 66° East 101 116 1,000  Level Cleveland Center

Login

Don't have an account? Register now (free) for customized features, flight alerts, and more!